sensor_id;sensor_type;location;lat;lon;timestamp;pressure;altitude;pressure_sealevel;temperature;humidity
25130;BME280;13308;50.860;13.664;2023-04-04T05:12:47;97663.19;;;0.34;100.00
25130;BME280;13308;50.860;13.664;2023-04-04T05:15:19;97667.28;;;0.40;100.00
25130;BME280;13308;50.860;13.664;2023-04-04T05:17:49;97675.34;;;0.49;100.00
25130;BME280;13308;50.860;13.664;2023-04-04T05:20:15;97673.06;;;0.71;100.00
25130;BME280;13308;50.860;13.664;2023-04-04T05:22:44;97680.03;;;0.93;100.00
25130;BME280;13308;50.860;13.664;2023-04-04T05:25:13;97678.03;;;1.02;100.00
25130;BME280;13308;50.860;13.664;2023-04-04T05:27:46;97684.91;;;0.99;100.00
25130;BME280;13308;50.860;13.664;2023-04-04T05:30:13;97692.72;;;1.01;100.00
25130;BME280;13308;50.860;13.664;2023-04-04T05:32:52;97694.16;;;0.86;100.00
25130;BME280;13308;50.860;13.664;2023-04-04T05:35:22;97694.72;;;0.92;100.00
25130;BME280;13308;50.860;13.664;2023-04-04T05:37:49;97692.50;;;1.06;100.00
25130;BME280;13308;50.860;13.664;2023-04-04T05:40:16;97690.75;;;0.89;100.00
25130;BME280;13308;50.860;13.664;2023-04-04T05:42:55;97695.81;;;0.79;100.00
25130;BME280;13308;50.860;13.664;2023-04-04T05:45:24;97700.41;;;0.66;100.00
25130;BME280;13308;50.860;13.664;2023-04-04T05:47:50;97699.88;;;0.73;100.00
25130;BME280;13308;50.860;13.664;2023-04-04T05:50:15;97697.81;;;0.70;100.00
25130;BME280;13308;50.860;13.664;2023-04-04T05:52:41;97704.03;;;0.70;100.00
25130;BME280;13308;50.860;13.664;2023-04-04T05:55:11;97701.31;;;0.70;100.00
25130;BME280;13308;50.860;13.664;2023-04-04T05:57:36;97701.91;;;0.76;100.00
25130;BME280;13308;50.860;13.664;2023-04-04T06:00:03;97699.88;;;0.73;100.00
25130;BME280;13308;50.860;13.664;2023-04-04T06:02:40;97698.75;;;0.74;100.00
25130;BME280;13308;50.860;13.664;2023-04-04T06:05:11;97694.25;;;0.78;100.00
25130;BME280;13308;50.860;13.664;2023-04-04T06:07:38;97702.16;;;0.83;100.00
25130;BME280;13308;50.860;13.664;2023-04-04T06:10:04;97694.72;;;0.92;100.00
25130;BME280;13308;50.860;13.664;2023-04-04T06:12:32;97701.09;;;0.96;100.00
25130;BME280;13308;50.860;13.664;2023-04-04T06:14:58;97703.72;;;1.04;100.00
25130;BME280;13308;50.860;13.664;2023-04-04T06:17:23;97697.03;;;1.02;100.00
25130;BME280;13308;50.860;13.664;2023-04-04T06:19:49;97694.34;;;1.14;100.00
25130;BME280;13308;50.860;13.664;2023-04-04T06:22:14;97701.94;;;1.20;100.00
25130;BME280;13308;50.860;13.664;2023-04-04T06:24:45;97695.25;;;1.18;100.00
25130;BME280;13308;50.860;13.664;2023-04-04T06:27:11;97701.03;;;1.16;100.00
25130;BME280;13308;50.860;13.664;2023-04-04T06:29:37;97702.75;;;1.21;100.00
25130;BME280;13308;50.860;13.664;2023-04-04T06:32:05;97706.31;;;1.13;100.00
25130;BME280;13308;50.860;13.664;2023-04-04T06:34:35;97711.22;;;1.19;100.00
25130;BME280;13308;50.860;13.664;2023-04-04T06:37:00;97707.38;;;1.20;100.00
25130;BME280;13308;50.860;13.664;2023-04-04T06:39:30;97704.97;;;1.19;100.00
25130;BME280;13308;50.860;13.664;2023-04-04T06:42:01;97697.00;;;1.34;100.00
25130;BME280;13308;50.860;13.664;2023-04-04T06:44:29;97697.44;;;1.36;100.00
25130;BME280;13308;50.860;13.664;2023-04-04T06:46:54;97695.28;;;1.42;100.00
25130;BME280;13308;50.860;13.664;2023-04-04T06:49:20;97699.66;;;1.67;100.00
25130;BME280;13308;50.860;13.664;2023-04-04T06:51:47;97691.72;;;1.74;100.00
25130;BME280;13308;50.860;13.664;2023-04-04T06:54:15;97695.56;;;1.85;100.00
25130;BME280;13308;50.860;13.664;2023-04-04T06:56:40;97702.09;;;1.96;99.24
25130;BME280;13308;50.860;13.664;2023-04-04T06:59:06;97701.00;;;1.97;97.37
25130;BME280;13308;50.860;13.664;2023-04-04T07:01:35;97709.59;;;1.99;95.96
25130;BME280;13308;50.860;13.664;2023-04-04T07:04:01;97701.00;;;2.09;96.16
25130;BME280;13308;50.860;13.664;2023-04-04T07:06:26;97693.00;;;2.28;95.41
25130;BME280;13308;50.860;13.664;2023-04-04T07:08:53;97699.53;;;2.51;95.31
25130;BME280;13308;50.860;13.664;2023-04-04T07:11:19;97705.78;;;2.79;93.79
25130;BME280;13308;50.860;13.664;2023-04-04T07:13:44;97702.03;;;3.11;92.57
25130;BME280;13308;50.860;13.664;2023-04-04T07:16:09;97703.72;;;3.31;88.87
25130;BME280;13308;50.860;13.664;2023-04-04T07:18:36;97700.84;;;3.39;86.63
25130;BME280;13308;50.860;13.664;2023-04-04T07:21:01;97703.50;;;3.51;87.06
25130;BME280;13308;50.860;13.664;2023-04-04T07:23:26;97712.94;;;4.19;86.53
25130;BME280;13308;50.860;13.664;2023-04-04T07:25:52;97720.81;;;4.55;84.85
25130;BME280;13308;50.860;13.664;2023-04-04T07:28:17;97719.66;;;4.56;82.79
25130;BME280;13308;50.860;13.664;2023-04-04T07:30:42;97718.63;;;5.82;80.96
25130;BME280;13308;50.860;13.664;2023-04-04T07:33:08;97720.28;;;6.61;75.00
25130;BME280;13308;50.860;13.664;2023-04-04T07:35:33;97718.69;;;5.85;71.87
25130;BME280;13308;50.860;13.664;2023-04-04T07:37:59;97722.69;;;5.69;70.32
25130;BME280;13308;50.860;13.664;2023-04-04T07:40:24;97715.97;;;5.44;70.70
25130;BME280;13308;50.860;13.664;2023-04-04T07:42:50;97715.34;;;5.31;74.37
25130;BME280;13308;50.860;13.664;2023-04-04T07:45:16;97717.44;;;5.19;74.83
25130;BME280;13308;50.860;13.664;2023-04-04T07:47:45;97718.72;;;5.06;75.15
25130;BME280;13308;50.860;13.664;2023-04-04T07:50:11;97712.69;;;5.16;75.47
25130;BME280;13308;50.860;13.664;2023-04-04T07:52:37;97717.44;;;5.19;74.78
25130;BME280;13308;50.860;13.664;2023-04-04T07:55:03;97714.41;;;5.05;74.09
25130;BME280;13308;50.860;13.664;2023-04-04T07:57:29;97709.97;;;4.78;73.95
25130;BME280;13308;50.860;13.664;2023-04-04T07:59:55;97714.97;;;5.33;72.90
25130;BME280;13308;50.860;13.664;2023-04-04T08:02:20;97715.72;;;4.92;72.70
25130;BME280;13308;50.860;13.664;2023-04-04T08:04:46;97711.00;;;4.89;75.11
25130;BME280;13308;50.860;13.664;2023-04-04T08:07:11;97714.69;;;5.00;73.32
25130;BME280;13308;50.860;13.664;2023-04-04T08:09:37;97719.13;;;4.51;73.25
25130;BME280;13308;50.860;13.664;2023-04-04T08:12:02;97708.44;;;4.27;75.76
25130;BME280;13308;50.860;13.664;2023-04-04T08:14:30;97705.59;;;4.39;75.10
25130;BME280;13308;50.860;13.664;2023-04-04T08:16:55;97710.22;;;4.19;73.82
25130;BME280;13308;50.860;13.664;2023-04-04T08:19:21;97700.84;;;3.86;71.89
25130;BME280;13308;50.860;13.664;2023-04-04T08:21:47;97705.78;;;3.65;72.28
25130;BME280;13308;50.860;13.664;2023-04-04T08:24:13;97691.19;;;3.57;72.79
25130;BME280;13308;50.860;13.664;2023-04-04T08:26:38;97695.47;;;3.74;73.40
25130;BME280;13308;50.860;13.664;2023-04-04T08:29:03;97697.44;;;3.73;74.68
25130;BME280;13308;50.860;13.664;2023-04-04T08:31:29;97699.78;;;3.59;75.41
25130;BME280;13308;50.860;13.664;2023-04-04T08:33:54;97699.19;;;3.66;73.65
25130;BME280;13308;50.860;13.664;2023-04-04T08:36:20;97695.56;;;3.62;72.66
25130;BME280;13308;50.860;13.664;2023-04-04T08:38:46;97699.69;;;3.56;73.34
25130;BME280;13308;50.860;13.664;2023-04-04T08:41:11;97699.44;;;3.45;74.26
25130;BME280;13308;50.860;13.664;2023-04-04T08:43:38;97693.47;;;3.55;75.98
25130;BME280;13308;50.860;13.664;2023-04-04T08:46:06;97697.59;;;3.65;74.66
25130;BME280;13308;50.860;13.664;2023-04-04T08:48:34;97693.72;;;3.81;76.13
25130;BME280;13308;50.860;13.664;2023-04-04T08:51:02;97698.13;;;3.86;76.01
25130;BME280;13308;50.860;13.664;2023-04-04T08:53:29;97688.81;;;3.87;74.05
25130;BME280;13308;50.860;13.664;2023-04-04T08:55:55;97688.53;;;3.61;74.33
25130;BME280;13308;50.860;13.664;2023-04-04T08:58:22;97692.16;;;3.49;74.56
25130;BME280;13308;50.860;13.664;2023-04-04T09:00:47;97691.69;;;3.63;73.77
25130;BME280;13308;50.860;13.664;2023-04-04T09:03:22;97693.41;;;4.52;68.62
25130;BME280;13308;50.860;13.664;2023-04-04T09:05:48;97691.00;;;4.85;70.16
25130;BME280;13308;50.860;13.664;2023-04-04T09:08:15;97693.88;;;4.73;70.30
25130;BME280;13308;50.860;13.664;2023-04-04T09:10:42;97693.13;;;4.57;67.35
25130;BME280;13308;50.860;13.664;2023-04-04T09:13:09;97699.94;;;4.13;60.84
25130;BME280;13308;50.860;13.664;2023-04-04T09:15:36;97694.41;;;3.63;59.51
25130;BME280;13308;50.860;13.664;2023-04-04T09:18:03;97696.50;;;4.16;57.31
25130;BME280;13308;50.860;13.664;2023-04-04T09:23:03;97701.91;;;6.13;53.65
25130;BME280;13308;50.860;13.664;2023-04-04T09:25:29;97696.16;;;7.03;54.33
25130;BME280;13308;50.860;13.664;2023-04-04T09:27:55;97708.66;;;7.73;53.35
25130;BME280;13308;50.860;13.664;2023-04-04T09:30:22;97697.44;;;8.36;51.58
25130;BME280;13308;50.860;13.664;2023-04-04T09:32:48;97700.38;;;8.63;52.06
25130;BME280;13308;50.860;13.664;2023-04-04T09:35:14;97701.34;;;8.95;50.96
25130;BME280;13308;50.860;13.664;2023-04-04T09:37:40;97708.22;;;9.50;52.97
25130;BME280;13308;50.860;13.664;2023-04-04T09:40:08;97709.84;;;9.76;50.48
25130;BME280;13308;50.860;13.664;2023-04-04T09:42:34;97705.22;;;10.18;47.59
25130;BME280;13308;50.860;13.664;2023-04-04T09:45:00;97709.88;;;9.86;46.75
25130;BME280;13308;50.860;13.664;2023-04-04T09:47:27;97715.81;;;10.37;46.77
25130;BME280;13308;50.860;13.664;2023-04-04T09:49:58;97718.19;;;10.49;46.60
25130;BME280;13308;50.860;13.664;2023-04-04T09:52:24;97709.91;;;10.56;46.67
25130;BME280;13308;50.860;13.664;2023-04-04T09:54:56;97715.38;;;10.70;44.02
25130;BME280;13308;50.860;13.664;2023-04-04T09:57:32;97715.03;;;10.54;42.61
25130;BME280;13308;50.860;13.664;2023-04-04T10:00:03;97707.09;;;10.67;44.58
25130;BME280;13308;50.860;13.664;2023-04-04T10:02:36;97699.50;;;11.09;44.86
25130;BME280;13308;50.860;13.664;2023-04-04T10:05:03;97700.41;;;10.68;45.62
25130;BME280;13308;50.860;13.664;2023-04-04T10:07:29;97712.91;;;11.14;45.78
25130;BME280;13308;50.860;13.664;2023-04-04T10:09:56;97709.75;;;11.09;43.49
25130;BME280;13308;50.860;13.664;2023-04-04T10:12:24;97707.69;;;11.30;43.80
25130;BME280;13308;50.860;13.664;2023-04-04T10:14:57;97696.19;;;11.42;45.19
25130;BME280;13308;50.860;13.664;2023-04-04T10:17:23;97704.88;;;11.44;46.13
25130;BME280;13308;50.860;13.664;2023-04-04T10:19:50;97704.00;;;11.68;45.18
25130;BME280;13308;50.860;13.664;2023-04-04T10:22:16;97695.44;;;12.07;44.99
25130;BME280;13308;50.860;13.664;2023-04-04T10:24:42;97699.69;;;12.18;44.14
25130;BME280;13308;50.860;13.664;2023-04-04T10:27:07;97702.13;;;12.09;42.95
25130;BME280;13308;50.860;13.664;2023-04-04T10:29:32;97692.72;;;11.31;41.41
25130;BME280;13308;50.860;13.664;2023-04-04T10:32:04;97695.69;;;9.77;43.76
25130;BME280;13308;50.860;13.664;2023-04-04T10:37:05;97689.66;;;8.44;45.07
25130;BME280;13308;50.860;13.664;2023-04-04T10:42:04;97683.03;;;7.22;46.31
25130;BME280;13308;50.860;13.664;2023-04-04T10:44:38;97677.94;;;7.21;46.97
25130;BME280;13308;50.860;13.664;2023-04-04T10:47:17;97675.41;;;7.82;46.79
25130;BME280;13308;50.860;13.664;2023-04-04T10:49:46;97685.00;;;8.55;45.97
25130;BME280;13308;50.860;13.664;2023-04-04T10:52:23;97676.75;;;8.02;46.00
25130;BME280;13308;50.860;13.664;2023-04-04T10:54:50;97681.16;;;7.30;47.06
25130;BME280;13308;50.860;13.664;2023-04-04T10:57:17;97686.31;;;7.02;47.73
25130;BME280;13308;50.860;13.664;2023-04-04T11:00:05;97674.66;;;7.08;47.61
25130;BME280;13308;50.860;13.664;2023-04-04T11:05:36;97678.34;;;9.52;49.58
25130;BME280;13308;50.860;13.664;2023-04-04T11:08:07;97675.25;;;10.27;47.82
25130;BME280;13308;50.860;13.664;2023-04-04T11:10:43;97670.47;;;10.66;45.20
25130;BME280;13308;50.860;13.664;2023-04-04T11:13:12;97674.97;;;11.29;46.63
25130;BME280;13308;50.860;13.664;2023-04-04T11:15:59;97686.16;;;10.97;43.47
25130;BME280;13308;50.860;13.664;2023-04-04T11:20:56;97675.41;;;9.03;44.41
25130;BME280;13308;50.860;13.664;2023-04-04T11:23:23;97678.84;;;8.76;43.71
25130;BME280;13308;50.860;13.664;2023-04-04T11:25:53;97670.56;;;8.72;44.26
25130;BME280;13308;50.860;13.664;2023-04-04T11:34:03;97657.88;;;10.55;44.07
25130;BME280;13308;50.860;13.664;2023-04-04T11:39:14;97643.69;;;9.48;42.84
25130;BME280;13308;50.860;13.664;2023-04-04T11:44:25;97648.41;;;10.56;44.59
25130;BME280;13308;50.860;13.664;2023-04-04T11:47:00;97649.25;;;10.28;43.86
25130;BME280;13308;50.860;13.664;2023-04-04T11:49:27;97641.94;;;11.04;43.64
25130;BME280;13308;50.860;13.664;2023-04-04T11:51:55;97654.53;;;11.09;43.39
25130;BME280;13308;50.860;13.664;2023-04-04T11:54:21;97643.75;;;10.18;42.90
25130;BME280;13308;50.860;13.664;2023-04-04T11:56:46;97646.75;;;10.86;41.16
25130;BME280;13308;50.860;13.664;2023-04-04T11:59:15;97649.06;;;10.98;39.87
25130;BME280;13308;50.860;13.664;2023-04-04T12:01:42;97640.50;;;11.61;38.45
25130;BME280;13308;50.860;13.664;2023-04-04T12:04:09;97636.13;;;11.57;40.87
25130;BME280;13308;50.860;13.664;2023-04-04T12:06:34;97637.97;;;11.77;38.08
25130;BME280;13308;50.860;13.664;2023-04-04T12:09:04;97625.75;;;11.75;39.58
25130;BME280;13308;50.860;13.664;2023-04-04T12:11:33;97633.31;;;12.18;40.10
25130;BME280;13308;50.860;13.664;2023-04-04T12:13:59;97626.91;;;12.28;39.33
25130;BME280;13308;50.860;13.664;2023-04-04T12:16:26;97629.22;;;13.07;41.38
25130;BME280;13308;50.860;13.664;2023-04-04T12:18:52;97632.94;;;12.90;38.20
25130;BME280;13308;50.860;13.664;2023-04-04T12:21:18;97619.56;;;12.48;40.03
25130;BME280;13308;50.860;13.664;2023-04-04T12:23:43;97632.44;;;13.02;38.78
25130;BME280;13308;50.860;13.664;2023-04-04T12:26:09;97625.97;;;13.12;38.40
25130;BME280;13308;50.860;13.664;2023-04-04T12:28:35;97621.84;;;13.27;40.12
25130;BME280;13308;50.860;13.664;2023-04-04T12:31:04;97624.19;;;13.55;39.58
25130;BME280;13308;50.860;13.664;2023-04-04T12:33:34;97622.56;;;13.84;38.24
25130;BME280;13308;50.860;13.664;2023-04-04T12:36:04;97613.47;;;14.07;37.46
25130;BME280;13308;50.860;13.664;2023-04-04T12:38:30;97607.88;;;14.56;39.72
25130;BME280;13308;50.860;13.664;2023-04-04T12:40:56;97617.13;;;14.50;37.13
25130;BME280;13308;50.860;13.664;2023-04-04T12:43:26;97628.94;;;13.28;36.58
25130;BME280;13308;50.860;13.664;2023-04-04T12:45:53;97625.91;;;13.46;38.54
25130;BME280;13308;50.860;13.664;2023-04-04T12:48:18;97621.47;;;13.78;37.99
25130;BME280;13308;50.860;13.664;2023-04-04T12:50:54;97619.78;;;13.31;37.75
25130;BME280;13308;50.860;13.664;2023-04-04T12:53:24;97622.09;;;13.36;37.83
25130;BME280;13308;50.860;13.664;2023-04-04T12:55:51;97615.59;;;12.53;38.98
25130;BME280;13308;50.860;13.664;2023-04-04T12:58:19;97610.91;;;11.51;38.70
25130;BME280;13308;50.860;13.664;2023-04-04T13:00:45;97599.13;;;10.65;40.86
25130;BME280;13308;50.860;13.664;2023-04-04T13:03:13;97597.31;;;9.92;40.60
25130;BME280;13308;50.860;13.664;2023-04-04T13:05:41;97604.75;;;11.30;39.76
25130;BME280;13308;50.860;13.664;2023-04-04T13:08:08;97612.97;;;12.39;38.26
25130;BME280;13308;50.860;13.664;2023-04-04T13:11:02;97605.22;;;12.60;37.44
25130;BME280;13308;50.860;13.664;2023-04-04T13:13:30;97599.69;;;12.97;37.77
25130;BME280;13308;50.860;13.664;2023-04-04T13:15:55;97607.94;;;13.57;37.31
25130;BME280;13308;50.860;13.664;2023-04-04T13:18:23;97597.84;;;13.70;37.30
25130;BME280;13308;50.860;13.664;2023-04-04T13:20:53;97599.41;;;14.83;37.23
25130;BME280;13308;50.860;13.664;2023-04-04T13:23:19;97593.94;;;14.79;36.90
25130;BME280;13308;50.860;13.664;2023-04-04T13:25:44;97592.81;;;13.88;34.12
25130;BME280;13308;50.860;13.664;2023-04-04T13:28:10;97595.06;;;14.20;34.70
25130;BME280;13308;50.860;13.664;2023-04-04T13:30:35;97589.78;;;15.07;35.52
25130;BME280;13308;50.860;13.664;2023-04-04T13:33:01;97589.75;;;13.79;35.99
25130;BME280;13308;50.860;13.664;2023-04-04T13:35:26;97594.63;;;13.49;35.70
25130;BME280;13308;50.860;13.664;2023-04-04T13:37:52;97592.16;;;14.27;36.17
25130;BME280;13308;50.860;13.664;2023-04-04T13:40:18;97584.97;;;14.06;36.18
25130;BME280;13308;50.860;13.664;2023-04-04T13:42:43;97595.78;;;14.66;35.29
25130;BME280;13308;50.860;13.664;2023-04-04T13:45:08;97588.72;;;14.81;34.59
25130;BME280;13308;50.860;13.664;2023-04-04T13:47:34;97578.34;;;15.05;33.74
25130;BME280;13308;50.860;13.664;2023-04-04T13:50:00;97583.41;;;15.26;33.72
25130;BME280;13308;50.860;13.664;2023-04-04T13:52:25;97579.47;;;14.88;32.96
25130;BME280;13308;50.860;13.664;2023-04-04T13:54:50;97566.63;;;14.12;33.90
25130;BME280;13308;50.860;13.664;2023-04-04T13:57:16;97571.47;;;13.59;35.88
25130;BME280;13308;50.860;13.664;2023-04-04T13:59:41;97563.38;;;13.18;36.78
25130;BME280;13308;50.860;13.664;2023-04-04T14:02:06;97566.50;;;13.73;37.33
25130;BME280;13308;50.860;13.664;2023-04-04T14:04:33;97568.13;;;13.94;37.18
25130;BME280;13308;50.860;13.664;2023-04-04T14:06:58;97563.06;;;15.13;35.97
25130;BME280;13308;50.860;13.664;2023-04-04T14:09:23;97569.69;;;16.34;33.42
25130;BME280;13308;50.860;13.664;2023-04-04T14:11:49;97563.31;;;15.02;33.53
25130;BME280;13308;50.860;13.664;2023-04-04T14:14:14;97551.75;;;14.45;34.69
25130;BME280;13308;50.860;13.664;2023-04-04T14:16:39;97558.31;;;14.74;33.45
25130;BME280;13308;50.860;13.664;2023-04-04T14:19:05;97559.81;;;15.69;33.35
25130;BME280;13308;50.860;13.664;2023-04-04T14:21:31;97563.47;;;14.95;33.77
25130;BME280;13308;50.860;13.664;2023-04-04T14:23:56;97559.22;;;13.33;34.39
25130;BME280;13308;50.860;13.664;2023-04-04T14:26:22;97557.50;;;12.12;37.05
25130;BME280;13308;50.860;13.664;2023-04-04T14:28:47;97548.69;;;10.64;37.13
25130;BME280;13308;50.860;13.664;2023-04-04T14:31:12;97550.16;;;11.48;38.70
25130;BME280;13308;50.860;13.664;2023-04-04T14:33:38;97551.84;;;13.23;37.27
25130;BME280;13308;50.860;13.664;2023-04-04T14:36:03;97548.41;;;14.11;35.23
25130;BME280;13308;50.860;13.664;2023-04-04T14:38:29;97548.91;;;13.83;34.75
25130;BME280;13308;50.860;13.664;2023-04-04T14:40:55;97552.19;;;13.25;33.82
25130;BME280;13308;50.860;13.664;2023-04-04T14:43:20;97546.31;;;12.60;34.40
25130;BME280;13308;50.860;13.664;2023-04-04T14:45:45;97537.94;;;10.84;38.11
25130;BME280;13308;50.860;13.664;2023-04-04T14:48:11;97524.84;;;10.12;38.89
25130;BME280;13308;50.860;13.664;2023-04-04T14:50:36;97532.56;;;10.52;38.47
25130;BME280;13308;50.860;13.664;2023-04-04T14:53:02;97529.94;;;10.17;39.24
25130;BME280;13308;50.860;13.664;2023-04-04T14:55:27;97526.88;;;9.45;41.72
25130;BME280;13308;50.860;13.664;2023-04-04T14:57:53;97527.25;;;9.12;41.21
25130;BME280;13308;50.860;13.664;2023-04-04T15:00:19;97517.84;;;9.34;40.06
25130;BME280;13308;50.860;13.664;2023-04-04T15:02:47;97530.06;;;10.82;38.69
25130;BME280;13308;50.860;13.664;2023-04-04T15:05:17;97533.78;;;12.15;38.06
25130;BME280;13308;50.860;13.664;2023-04-04T15:07:44;97534.75;;;13.02;37.43
25130;BME280;13308;50.860;13.664;2023-04-04T15:10:10;97530.09;;;13.71;36.75
25130;BME280;13308;50.860;13.664;2023-04-04T15:12:36;97544.44;;;14.35;35.79
25130;BME280;13308;50.860;13.664;2023-04-04T15:15:01;97532.91;;;13.18;35.93
25130;BME280;13308;50.860;13.664;2023-04-04T15:17:26;97543.16;;;12.24;37.21
25130;BME280;13308;50.860;13.664;2023-04-04T15:19:52;97529.09;;;11.17;38.38
25130;BME280;13308;50.860;13.664;2023-04-04T15:22:17;97533.00;;;12.14;38.31
25130;BME280;13308;50.860;13.664;2023-04-04T15:24:42;97524.34;;;12.76;37.37
25130;BME280;13308;50.860;13.664;2023-04-04T15:27:08;97525.59;;;12.41;36.88
25130;BME280;13308;50.860;13.664;2023-04-04T15:29:33;97518.59;;;11.45;38.64
25130;BME280;13308;50.860;13.664;2023-04-04T15:31:58;97518.28;;;11.36;40.36
25130;BME280;13308;50.860;13.664;2023-04-04T15:34:24;97507.97;;;10.89;39.63
25130;BME280;13308;50.860;13.664;2023-04-04T15:36:49;97507.47;;;10.22;39.98
25130;BME280;13308;50.860;13.664;2023-04-04T15:39:16;97510.72;;;9.68;43.20
25130;BME280;13308;50.860;13.664;2023-04-04T15:41:41;97512.63;;;9.99;41.87
25130;BME280;13308;50.860;13.664;2023-04-04T15:44:06;97504.47;;;9.43;42.15
25130;BME280;13308;50.860;13.664;2023-04-04T15:46:32;97503.59;;;10.09;41.00
25130;BME280;13308;50.860;13.664;2023-04-04T15:48:57;97506.66;;;10.32;40.69
25130;BME280;13308;50.860;13.664;2023-04-04T15:51:23;97515.63;;;10.57;39.24
25130;BME280;13308;50.860;13.664;2023-04-04T15:53:52;97513.41;;;11.00;40.18
25130;BME280;13308;50.860;13.664;2023-04-04T15:56:18;97510.25;;;11.01;38.34
25130;BME280;13308;50.860;13.664;2023-04-04T15:58:43;97515.09;;;11.41;38.24
25130;BME280;13308;50.860;13.664;2023-04-04T16:01:09;97503.59;;;11.46;38.99
25130;BME280;13308;50.860;13.664;2023-04-04T16:03:34;97507.94;;;11.47;38.17
25130;BME280;13308;50.860;13.664;2023-04-04T16:05:59;97499.38;;;11.35;36.28
25130;BME280;13308;50.860;13.664;2023-04-04T16:08:25;97503.59;;;10.02;39.16
25130;BME280;13308;50.860;13.664;2023-04-04T16:10:50;97504.84;;;9.10;40.95
25130;BME280;13308;50.860;13.664;2023-04-04T16:13:15;97492.91;;;8.43;42.38
25130;BME280;13308;50.860;13.664;2023-04-04T16:15:41;97500.59;;;8.07;42.46
25130;BME280;13308;50.860;13.664;2023-04-04T16:18:06;97502.09;;;7.33;44.38
25130;BME280;13308;50.860;13.664;2023-04-04T16:20:32;97494.94;;;7.25;44.36
25130;BME280;13308;50.860;13.664;2023-04-04T16:22:58;97493.84;;;6.86;45.67
25130;BME280;13308;50.860;13.664;2023-04-04T16:25:23;97492.56;;;6.76;45.73
25130;BME280;13308;50.860;13.664;2023-04-04T16:27:48;97495.84;;;6.52;45.83
25130;BME280;13308;50.860;13.664;2023-04-04T16:30:14;97485.25;;;6.51;46.24
25130;BME280;13308;50.860;13.664;2023-04-04T16:32:39;97485.66;;;6.53;45.62
25130;BME280;13308;50.860;13.664;2023-04-04T16:35:07;97482.28;;;6.66;46.45
25130;BME280;13308;50.860;13.664;2023-04-04T16:37:32;97478.69;;;6.59;46.54
25130;BME280;13308;50.860;13.664;2023-04-04T16:39:58;97481.88;;;6.28;46.37
25130;BME280;13308;50.860;13.664;2023-04-04T16:42:25;97477.75;;;6.11;48.72
25130;BME280;13308;50.860;13.664;2023-04-04T16:44:51;97481.84;;;5.95;48.50
25130;BME280;13308;50.860;13.664;2023-04-04T16:47:16;97485.13;;;5.78;48.77
25130;BME280;13308;50.860;13.664;2023-04-04T16:49:42;97487.03;;;5.74;47.69
25130;BME280;13308;50.860;13.664;2023-04-04T16:52:07;97484.91;;;5.64;47.94
25130;BME280;13308;50.860;13.664;2023-04-04T16:54:35;97479.66;;;5.52;47.80
25130;BME280;13308;50.860;13.664;2023-04-04T16:57:00;97475.31;;;5.47;48.95
25130;BME280;13308;50.860;13.664;2023-04-04T16:59:26;97478.09;;;5.51;48.32
25130;BME280;13308;50.860;13.664;2023-04-04T17:01:51;97474.72;;;5.35;48.86
25130;BME280;13308;50.860;13.664;2023-04-04T17:04:17;97482.09;;;5.31;49.58
25130;BME280;13308;50.860;13.664;2023-04-04T17:06:42;97469.94;;;5.28;49.04
25130;BME280;13308;50.860;13.664;2023-04-04T17:09:07;97472.09;;;5.16;49.93
25130;BME280;13308;50.860;13.664;2023-04-04T17:11:33;97471.63;;;5.10;49.84
25130;BME280;13308;50.860;13.664;2023-04-04T17:13:59;97468.69;;;5.00;50.91
25130;BME280;13308;50.860;13.664;2023-04-04T17:16:25;97464.59;;;4.87;52.12
25130;BME280;13308;50.860;13.664;2023-04-04T17:18:51;97467.22;;;4.80;50.04
25130;BME280;13308;50.860;13.664;2023-04-04T17:21:17;97463.50;;;4.69;50.69
25130;BME280;13308;50.860;13.664;2023-04-04T17:23:43;97468.44;;;4.60;50.91
25130;BME280;13308;50.860;13.664;2023-04-04T17:26:08;97467.03;;;4.47;51.36
25130;BME280;13308;50.860;13.664;2023-04-04T17:28:33;97461.28;;;4.33;52.15
25130;BME280;13308;50.860;13.664;2023-04-04T17:30:59;97463.41;;;4.20;52.32
25130;BME280;13308;50.860;13.664;2023-04-04T17:33:24;97467.41;;;4.07;53.40
25130;BME280;13308;50.860;13.664;2023-04-04T17:35:51;97469.94;;;3.97;53.29
25130;BME280;13308;50.860;13.664;2023-04-04T17:38:16;97472.75;;;3.81;54.12
25130;BME280;13308;50.860;13.664;2023-04-04T17:40:42;97470.97;;;3.70;54.72
25130;BME280;13308;50.860;13.664;2023-04-04T17:43:07;97468.50;;;3.65;53.82
25130;BME280;13308;50.860;13.664;2023-04-04T17:45:33;97464.03;;;3.57;54.07
25130;BME280;13308;50.860;13.664;2023-04-04T17:47:58;97467.19;;;3.40;54.07
25130;BME280;13308;50.860;13.664;2023-04-04T17:50:24;97467.66;;;3.26;55.78
25130;BME280;13308;50.860;13.664;2023-04-04T17:52:49;97464.25;;;3.14;55.22
25130;BME280;13308;50.860;13.664;2023-04-04T17:55:15;97464.34;;;3.02;55.98
25130;BME280;13308;50.860;13.664;2023-04-04T17:57:41;97469.03;;;2.86;56.20
25130;BME280;13308;50.860;13.664;2023-04-04T18:00:09;97466.22;;;2.67;56.34
25130;BME280;13308;50.860;13.664;2023-04-04T18:02:36;97469.72;;;2.52;56.65
25130;BME280;13308;50.860;13.664;2023-04-04T18:05:01;97471.63;;;2.36;58.83
25130;BME280;13308;50.860;13.664;2023-04-04T18:07:26;97463.34;;;2.17;59.98
25130;BME280;13308;50.860;13.664;2023-04-04T18:09:52;97468.19;;;1.96;61.73
25130;BME280;13308;50.860;13.664;2023-04-04T18:12:17;97467.56;;;1.87;63.67
25130;BME280;13308;50.860;13.664;2023-04-04T18:14:42;97468.53;;;1.79;64.72
25130;BME280;13308;50.860;13.664;2023-04-04T18:17:08;97469.94;;;1.61;67.06
25130;BME280;13308;50.860;13.664;2023-04-04T18:19:34;97465.00;;;1.51;68.78
25130;BME280;13308;50.860;13.664;2023-04-04T18:22:00;97461.72;;;1.33;69.05
25130;BME280;13308;50.860;13.664;2023-04-04T18:24:26;97475.69;;;1.32;70.63
25130;BME280;13308;50.860;13.664;2023-04-04T18:26:52;97464.13;;;1.23;70.41
25130;BME280;13308;50.860;13.664;2023-04-04T18:29:18;97472.28;;;1.23;70.80